Time;durP1;ratioP1;P1;durP2;ratioP2;P2;SDS_P1;SDS_P2;PMS_P1;PMS_P2;Temp;Humidity;BMP_temperature;BMP_pressure;BME280_temperature;BME280_humidity;BME280_pressure;Samples;Min_cycle;Max_cycle;Signal;HPM_P1;HPM_P2
2021/05/16 00:01:30;;;;;;;7.43;4.90;;;;;;;;;;4975374;28;20034;-56
2021/05/16 00:03:55;;;;;;;7.68;3.83;;;;;;;;;;4975173;28;20492;-57
2021/05/16 00:06:24;;;;;;;7.75;4.10;;;;;;;;;;4983491;28;20042;-57
2021/05/16 00:08:49;;;;;;;7.68;3.95;;;;;;;;;;4975093;28;20209;-57
2021/05/16 00:11:15;;;;;;;8.68;4.30;;;;;;;;;;4973938;28;20038;-57
2021/05/16 00:13:41;;;;;;;8.57;4.07;;;;;;;;;;4976180;28;20065;-57
2021/05/16 00:16:08;;;;;;;6.93;4.30;;;;;;;;;;4971398;28;21174;-57
2021/05/16 00:18:37;;;;;;;9.80;4.97;;;;;;;;;;4963197;28;20049;-57
2021/05/16 00:21:02;;;;;;;6.82;3.83;;;;;;;;;;4958066;28;20042;-58
2021/05/16 00:23:28;;;;;;;14.57;4.70;;;;;;;;;;4974629;28;20125;-57
2021/05/16 00:25:53;;;;;;;10.10;4.70;;;;;;;;;;4958314;28;20596;-57
2021/05/16 00:28:21;;;;;;;11.60;5.28;;;;;;;;;;4974057;28;21905;-56
2021/05/16 00:30:48;;;;;;;10.88;5.80;;;;;;;;;;4973021;28;20073;-56
2021/05/16 00:33:14;;;;;;;7.50;4.75;;;;;;;;;;4959570;28;20133;-57
2021/05/16 00:35:39;;;;;;;9.07;5.40;;;;;;;;;;4974208;28;20029;-57
2021/05/16 00:38:05;;;;;;;10.57;5.40;;;;;;;;;;4974678;28;20037;-57
2021/05/16 00:40:36;;;;;;;7.65;5.00;;;;;;;;;;4941441;28;20578;-58
2021/05/16 00:43:03;;;;;;;7.93;4.70;;;;;;;;;;4974287;28;20034;-57
2021/05/16 00:45:29;;;;;;;8.60;4.85;;;;;;;;;;4972366;28;20034;-57
2021/05/16 00:48:00;;;;;;;7.57;4.95;;;;;;;;;;4981657;28;20050;-57
2021/05/16 00:50:32;;;;;;;8.70;5.28;;;;;;;;;;4972444;28;20512;-58
2021/05/16 00:53:00;;;;;;;10.20;5.40;;;;;;;;;;4977084;28;20047;-57
2021/05/16 00:55:26;;;;;;;9.80;5.75;;;;;;;;;;4959358;28;20065;-58
2021/05/16 00:57:53;;;;;;;9.02;5.32;;;;;;;;;;4975605;28;20030;-57
2021/05/16 01:00:22;;;;;;;10.50;5.90;;;;;;;;;;4972820;28;20076;-58
2021/05/16 01:02:50;;;;;;;9.57;5.45;;;;;;;;;;4991386;28;20053;-58
2021/05/16 01:05:17;;;;;;;7.70;5.18;;;;;;;;;;4961970;28;20057;-57
2021/05/16 01:07:45;;;;;;;8.40;5.88;;;;;;;;;;4967021;28;20041;-58
2021/05/16 01:10:11;;;;;;;11.82;6.05;;;;;;;;;;4977127;28;20050;-58
2021/05/16 01:12:42;;;;;;;9.10;5.20;;;;;;;;;;4962453;28;20094;-57
2021/05/16 01:15:11;;;;;;;10.13;5.93;;;;;;;;;;4979067;28;20311;-56
2021/05/16 01:17:39;;;;;;;11.52;5.65;;;;;;;;;;4962781;28;20655;-58
2021/05/16 01:20:07;;;;;;;11.95;5.97;;;;;;;;;;4977515;28;20057;-57
2021/05/16 01:22:32;;;;;;;11.80;6.18;;;;;;;;;;4977379;28;20061;-58
2021/05/16 01:24:58;;;;;;;10.05;6.65;;;;;;;;;;4978574;28;21011;-57
2021/05/16 01:27:26;;;;;;;12.80;6.18;;;;;;;;;;4961168;28;20041;-58
2021/05/16 01:29:51;;;;;;;13.82;6.72;;;;;;;;;;4958952;28;20026;-60
2021/05/16 01:32:21;;;;;;;13.15;7.03;;;;;;;;;;4977901;28;20030;-58
2021/05/16 01:34:47;;;;;;;15.93;7.93;;;;;;;;;;4978124;28;20033;-58
2021/05/16 01:37:13;;;;;;;12.18;6.65;;;;;;;;;;4977401;28;20172;-57
2021/05/16 01:39:40;;;;;;;12.35;6.97;;;;;;;;;;4976918;28;20038;-57
2021/05/16 01:42:05;;;;;;;11.70;6.88;;;;;;;;;;4978101;28;20129;-57
2021/05/16 01:44:31;;;;;;;13.70;6.47;;;;;;;;;;4965398;28;20046;-58
2021/05/16 01:47:03;;;;;;;12.45;7.13;;;;;;;;;;4976705;28;20088;-58
2021/05/16 01:49:36;;;;;;;12.88;6.70;;;;;;;;;;4977381;28;20045;-58
2021/05/16 01:52:02;;;;;;;13.02;6.55;;;;;;;;;;4977366;28;20073;-58
2021/05/16 01:54:27;;;;;;;15.15;7.50;;;;;;;;;;4978731;28;20755;-57
2021/05/16 01:56:55;;;;;;;18.15;7.57;;;;;;;;;;4978599;28;20044;-58
2021/05/16 01:59:21;;;;;;;17.10;7.18;;;;;;;;;;4976944;28;20030;-58
2021/05/16 02:01:49;;;;;;;13.82;8.70;;;;;;;;;;4977302;28;20128;-58
2021/05/16 02:04:15;;;;;;;15.02;8.60;;;;;;;;;;4978416;28;20053;-58
2021/05/16 02:06:41;;;;;;;12.20;7.95;;;;;;;;;;4977845;28;20490;-57
2021/05/16 02:09:06;;;;;;;16.25;9.45;;;;;;;;;;4977766;28;20169;-58
2021/05/16 02:11:32;;;;;;;13.88;8.15;;;;;;;;;;4974771;28;20649;-57
2021/05/16 02:13:58;;;;;;;21.15;8.98;;;;;;;;;;4976919;28;20048;-58
2021/05/16 02:16:23;;;;;;;18.30;8.88;;;;;;;;;;4976769;28;20054;-58
2021/05/16 02:18:49;;;;;;;19.55;9.90;;;;;;;;;;4977478;28;20038;-58
2021/05/16 02:21:18;;;;;;;20.40;9.43;;;;;;;;;;4964508;28;20061;-57
2021/05/16 02:23:48;;;;;;;16.05;8.82;;;;;;;;;;4978000;28;20030;-58
2021/05/16 02:26:16;;;;;;;15.85;9.23;;;;;;;;;;4974555;28;20034;-59
2021/05/16 02:28:42;;;;;;;18.13;9.70;;;;;;;;;;4978525;28;20643;-58
2021/05/16 02:31:15;;;;;;;21.80;10.05;;;;;;;;;;4975339;28;20049;-58
2021/05/16 02:33:41;;;;;;;17.00;9.05;;;;;;;;;;4961502;28;20066;-57
2021/05/16 02:36:06;;;;;;;25.15;10.32;;;;;;;;;;4974761;28;20117;-59
2021/05/16 02:38:32;;;;;;;16.15;10.23;;;;;;;;;;4965294;28;20405;-58
2021/05/16 02:40:59;;;;;;;22.58;10.40;;;;;;;;;;4976231;28;20048;-57
2021/05/16 02:43:25;;;;;;;16.88;9.32;;;;;;;;;;4977616;28;20034;-58
2021/05/16 02:45:54;;;;;;;19.00;10.40;;;;;;;;;;4974846;28;20044;-58
2021/05/16 02:48:19;;;;;;;19.05;9.60;;;;;;;;;;4975074;28;20038;-58
2021/05/16 02:50:45;;;;;;;18.77;10.07;;;;;;;;;;4979379;28;20219;-59
2021/05/16 02:53:17;;;;;;;17.45;9.05;;;;;;;;;;4975641;28;20042;-57
2021/05/16 02:55:47;;;;;;;16.00;9.85;;;;;;;;;;4973370;28;20038;-58
2021/05/16 02:58:13;;;;;;;19.27;9.88;;;;;;;;;;4960114;28;20157;-58
2021/05/16 03:00:38;;;;;;;18.55;10.77;;;;;;;;;;4976237;28;20513;-57
2021/05/16 03:03:06;;;;;;;18.50;10.55;;;;;;;;;;4976924;28;20478;-57
2021/05/16 03:05:37;;;;;;;17.40;9.80;;;;;;;;;;4976386;28;20049;-57
2021/05/16 03:08:07;;;;;;;20.20;10.95;;;;;;;;;;4978959;28;20030;-58
2021/05/16 03:10:33;;;;;;;20.90;11.45;;;;;;;;;;4975323;28;20041;-57
2021/05/16 03:12:59;;;;;;;16.88;9.65;;;;;;;;;;4976262;28;20085;-58
2021/05/16 03:15:27;;;;;;;22.75;10.07;;;;;;;;;;4984242;28;20038;-57
2021/05/16 03:17:58;;;;;;;18.98;10.30;;;;;;;;;;4978657;28;20064;-57
2021/05/16 03:20:23;;;;;;;20.15;10.55;;;;;;;;;;4976094;28;20664;-57
2021/05/16 03:22:51;;;;;;;21.23;10.57;;;;;;;;;;4973627;28;20038;-58
2021/05/16 03:25:18;;;;;;;22.45;10.60;;;;;;;;;;4960573;28;20422;-58
2021/05/16 03:27:43;;;;;;;23.45;11.40;;;;;;;;;;4976296;28;20030;-59
2021/05/16 03:30:10;;;;;;;18.75;9.75;;;;;;;;;;4977473;28;20034;-58
2021/05/16 03:32:36;;;;;;;19.90;10.05;;;;;;;;;;4974418;28;20030;-58
2021/05/16 03:35:06;;;;;;;18.75;10.10;;;;;;;;;;4976441;28;20536;-59
2021/05/16 03:37:32;;;;;;;19.77;10.15;;;;;;;;;;4975916;28;20049;-59
2021/05/16 03:39:57;;;;;;;18.92;9.85;;;;;;;;;;4973508;28;20026;-58
2021/05/16 03:42:26;;;;;;;22.65;11.02;;;;;;;;;;4976756;28;20632;-59
2021/05/16 03:44:53;;;;;;;21.08;10.80;;;;;;;;;;4975714;28;20034;-59
2021/05/16 03:47:22;;;;;;;21.48;10.98;;;;;;;;;;4976011;28;20038;-59
2021/05/16 03:49:47;;;;;;;19.45;10.45;;;;;;;;;;4978697;28;20054;-58
2021/05/16 03:52:14;;;;;;;25.58;11.93;;;;;;;;;;4977382;28;20029;-58
2021/05/16 03:54:40;;;;;;;22.40;11.73;;;;;;;;;;4977122;28;20045;-58
2021/05/16 03:57:08;;;;;;;22.00;11.68;;;;;;;;;;4960204;28;20519;-59
2021/05/16 03:59:34;;;;;;;22.73;12.13;;;;;;;;;;4976547;28;20026;-58
2021/05/16 04:01:59;;;;;;;25.83;12.40;;;;;;;;;;4958929;28;20550;-58
2021/05/16 04:04:28;;;;;;;23.15;11.70;;;;;;;;;;4975014;28;20405;-58
2021/05/16 04:06:53;;;;;;;24.42;11.45;;;;;;;;;;4976072;28;20518;-58
2021/05/16 04:09:19;;;;;;;24.45;12.13;;;;;;;;;;4948321;28;20042;-58
2021/05/16 04:11:44;;;;;;;26.50;11.00;;;;;;;;;;4964152;28;20176;-57
2021/05/16 04:14:10;;;;;;;22.33;11.25;;;;;;;;;;4957329;28;20501;-60
2021/05/16 04:16:35;;;;;;;22.83;10.98;;;;;;;;;;4975665;28;20044;-58
2021/05/16 04:19:01;;;;;;;18.95;10.45;;;;;;;;;;4956499;28;20497;-58
2021/05/16 04:21:29;;;;;;;21.08;11.77;;;;;;;;;;4962053;28;20133;-58
2021/05/16 04:23:57;;;;;;;21.75;12.18;;;;;;;;;;4951117;28;20046;-58
2021/05/16 04:26:25;;;;;;;20.70;11.02;;;;;;;;;;4973631;28;20125;-58
2021/05/16 04:28:53;;;;;;;20.10;10.82;;;;;;;;;;4965751;28;20156;-58
2021/05/16 04:31:20;;;;;;;24.92;11.52;;;;;;;;;;4975006;28;20513;-59
2021/05/16 04:33:48;;;;;;;21.67;11.65;;;;;;;;;;4951545;28;20038;-58
2021/05/16 04:36:16;;;;;;;23.33;11.52;;;;;;;;;;4975041;28;20038;-58
2021/05/16 04:38:44;;;;;;;22.30;11.10;;;;;;;;;;4974497;28;20030;-58
2021/05/16 04:41:09;;;;;;;21.77;11.23;;;;;;;;;;4974041;28;20140;-58
2021/05/16 04:43:37;;;;;;;38.55;14.35;;;;;;;;;;4976306;28;20052;-58
2021/05/16 04:46:03;;;;;;;29.02;13.38;;;;;;;;;;4974143;28;20107;-58
2021/05/16 04:48:31;;;;;;;30.60;13.57;;;;;;;;;;4973507;28;20046;-58
2021/05/16 04:50:56;;;;;;;28.33;13.05;;;;;;;;;;4974987;28;20055;-58
2021/05/16 04:53:22;;;;;;;24.35;13.50;;;;;;;;;;4974161;28;20061;-59
2021/05/16 04:55:48;;;;;;;25.17;12.35;;;;;;;;;;4960037;28;20871;-59
2021/05/16 04:58:15;;;;;;;26.27;12.63;;;;;;;;;;4963640;28;20034;-58
2021/05/16 05:00:41;;;;;;;25.45;12.00;;;;;;;;;;4975808;28;20125;-58
2021/05/16 05:03:09;;;;;;;25.95;13.65;;;;;;;;;;4961762;28;20119;-57
2021/05/16 05:05:35;;;;;;;29.52;14.25;;;;;;;;;;4973881;28;20034;-57
2021/05/16 05:08:00;;;;;;;29.50;15.15;;;;;;;;;;4975067;28;20556;-58
2021/05/16 05:10:28;;;;;;;27.60;12.23;;;;;;;;;;4973347;28;20189;-58
2021/05/16 05:12:53;;;;;;;27.13;14.43;;;;;;;;;;4973493;28;20038;-59
2021/05/16 05:15:19;;;;;;;31.83;13.93;;;;;;;;;;4974916;28;20100;-58
2021/05/16 05:17:47;;;;;;;27.85;13.55;;;;;;;;;;4973470;28;20060;-58
2021/05/16 05:20:13;;;;;;;28.23;14.20;;;;;;;;;;4975493;28;20038;-58
2021/05/16 05:22:41;;;;;;;24.40;12.52;;;;;;;;;;4973863;28;20043;-58
2021/05/16 05:25:08;;;;;;;23.95;12.60;;;;;;;;;;4974488;28;20061;-59
2021/05/16 05:27:34;;;;;;;27.75;12.25;;;;;;;;;;4978437;28;20033;-59
2021/05/16 05:30:02;;;;;;;26.63;13.07;;;;;;;;;;4957194;28;20065;-59
2021/05/16 05:32:28;;;;;;;26.77;11.98;;;;;;;;;;4964794;28;20041;-59
2021/05/16 05:34:54;;;;;;;25.45;12.63;;;;;;;;;;4974101;28;20064;-59
2021/05/16 05:37:23;;;;;;;25.25;11.20;;;;;;;;;;4973904;28;20046;-58
2021/05/16 05:39:48;;;;;;;21.52;11.77;;;;;;;;;;4956346;28;20156;-59
2021/05/16 05:42:14;;;;;;;29.75;12.23;;;;;;;;;;4958975;28;20070;-59
2021/05/16 05:44:40;;;;;;;27.58;11.73;;;;;;;;;;4975565;28;20058;-59
2021/05/16 05:47:06;;;;;;;23.25;11.43;;;;;;;;;;4963726;28;20157;-59
2021/05/16 05:49:32;;;;;;;20.25;10.88;;;;;;;;;;4971985;28;20520;-59
2021/05/16 05:51:59;;;;;;;28.15;11.77;;;;;;;;;;4969719;28;20057;-58
2021/05/16 05:54:25;;;;;;;26.33;12.13;;;;;;;;;;4966333;28;20195;-59
2021/05/16 05:56:50;;;;;;;24.58;11.38;;;;;;;;;;4952659;28;20132;-58
2021/05/16 05:59:16;;;;;;;27.67;12.27;;;;;;;;;;4966043;28;20518;-58
2021/05/16 06:01:42;;;;;;;28.92;13.43;;;;;;;;;;4970453;28;20030;-58
2021/05/16 06:04:11;;;;;;;36.83;12.73;;;;;;;;;;4936644;28;20052;-59
2021/05/16 06:06:39;;;;;;;29.35;13.23;;;;;;;;;;4974709;28;20041;-59
2021/05/16 06:09:07;;;;;;;33.72;14.40;;;;;;;;;;4965783;28;20061;-59
2021/05/16 06:11:33;;;;;;;40.55;15.38;;;;;;;;;;4958249;28;20386;-58
2021/05/16 06:14:01;;;;;;;33.63;13.75;;;;;;;;;;4968704;28;20034;-60
2021/05/16 06:16:30;;;;;;;30.17;12.90;;;;;;;;;;4974667;28;20038;-58
2021/05/16 06:18:59;;;;;;;33.28;14.07;;;;;;;;;;4967805;28;20037;-58
2021/05/16 06:21:29;;;;;;;35.63;14.35;;;;;;;;;;4977944;28;20358;-58
2021/05/16 06:24:10;;;;;;;32.83;14.20;;;;;;;;;;4975965;28;20027;-58
2021/05/16 06:26:37;;;;;;;31.83;13.00;;;;;;;;;;4978665;28;20034;-58
2021/05/16 06:29:06;;;;;;;32.13;13.98;;;;;;;;;;4979336;28;20029;-60
2021/05/16 06:31:32;;;;;;;32.53;13.95;;;;;;;;;;4978002;28;20155;-60
2021/05/16 06:33:58;;;;;;;35.65;12.75;;;;;;;;;;4978921;28;20026;-57
2021/05/16 06:36:23;;;;;;;31.35;10.98;;;;;;;;;;4977384;28;20041;-54
2021/05/16 06:38:49;;;;;;;26.80;10.55;;;;;;;;;;4976488;28;20050;-56
2021/05/16 06:41:17;;;;;;;26.50;10.25;;;;;;;;;;4980838;28;20954;-55
2021/05/16 06:43:43;;;;;;;20.33;8.68;;;;;;;;;;4978134;28;20058;-57
2021/05/16 06:46:09;;;;;;;26.20;9.45;;;;;;;;;;4977048;28;20129;-57
2021/05/16 06:48:37;;;;;;;21.70;9.23;;;;;;;;;;4968189;28;20097;-57
2021/05/16 06:51:04;;;;;;;21.88;9.95;;;;;;;;;;4978521;28;20644;-57
2021/05/16 06:53:30;;;;;;;21.90;10.20;;;;;;;;;;4959117;28;20047;-57
2021/05/16 06:55:56;;;;;;;29.15;11.40;;;;;;;;;;4977223;28;20107;-56
2021/05/16 06:58:21;;;;;;;19.65;10.40;;;;;;;;;;4972054;28;20044;-56
2021/05/16 07:00:47;;;;;;;21.38;10.55;;;;;;;;;;4951153;28;20038;-57
2021/05/16 07:03:13;;;;;;;25.83;10.02;;;;;;;;;;4967954;28;20040;-57
2021/05/16 07:05:39;;;;;;;18.52;9.25;;;;;;;;;;4964865;28;20034;-57
2021/05/16 07:08:04;;;;;;;16.13;8.10;;;;;;;;;;4966157;28;20482;-57
2021/05/16 07:10:31;;;;;;;19.02;9.30;;;;;;;;;;4964921;28;20037;-58
2021/05/16 07:12:58;;;;;;;13.23;8.35;;;;;;;;;;4968518;28;20048;-58
2021/05/16 07:15:24;;;;;;;21.05;9.15;;;;;;;;;;4953045;28;20034;-58
2021/05/16 07:17:49;;;;;;;16.83;8.20;;;;;;;;;;4966689;28;20100;-57
2021/05/16 07:20:18;;;;;;;14.15;8.25;;;;;;;;;;4973757;28;20030;-58
2021/05/16 07:22:44;;;;;;;17.35;8.13;;;;;;;;;;4967679;28;20069;-58
2021/05/16 07:25:09;;;;;;;14.30;7.25;;;;;;;;;;4964956;28;20170;-57
2021/05/16 07:27:35;;;;;;;13.93;7.00;;;;;;;;;;4970070;28;20595;-57
2021/05/16 07:30:00;;;;;;;11.57;6.57;;;;;;;;;;4962400;28;20040;-57
2021/05/16 07:32:26;;;;;;;14.38;6.78;;;;;;;;;;4966030;28;20034;-58
2021/05/16 07:34:56;;;;;;;12.02;6.88;;;;;;;;;;4964082;28;20042;-56
2021/05/16 07:37:24;;;;;;;13.07;6.68;;;;;;;;;;4965945;28;20034;-56
2021/05/16 07:39:50;;;;;;;10.30;6.45;;;;;;;;;;4972053;28;20750;-57
2021/05/16 07:42:16;;;;;;;11.15;6.38;;;;;;;;;;4955963;28;20064;-57
2021/05/16 07:44:46;;;;;;;8.98;5.18;;;;;;;;;;4973007;28;20084;-56
2021/05/16 07:47:11;;;;;;;8.15;5.20;;;;;;;;;;4975656;28;20048;-57
2021/05/16 07:49:37;;;;;;;8.82;5.63;;;;;;;;;;4974728;28;20034;-57
2021/05/16 07:52:03;;;;;;;11.50;5.18;;;;;;;;;;4977218;28;20054;-56
2021/05/16 07:54:28;;;;;;;9.60;4.85;;;;;;;;;;4974351;28;20538;-56
2021/05/16 07:56:57;;;;;;;8.20;4.55;;;;;;;;;;4971987;28;20040;-57
2021/05/16 07:59:23;;;;;;;10.73;5.05;;;;;;;;;;4959645;28;20045;-57
2021/05/16 08:01:49;;;;;;;7.85;5.18;;;;;;;;;;4959498;28;20034;-58
2021/05/16 08:04:15;;;;;;;11.05;4.70;;;;;;;;;;4982108;28;20058;-56
2021/05/16 08:06:40;;;;;;;9.13;4.68;;;;;;;;;;4979262;28;20037;-56
2021/05/16 08:09:06;;;;;;;7.55;4.45;;;;;;;;;;4964400;28;20034;-57
2021/05/16 08:11:34;;;;;;;8.52;4.97;;;;;;;;;;4972940;28;20643;-56
2021/05/16 08:13:59;;;;;;;7.85;4.22;;;;;;;;;;4976914;28;20033;-57
2021/05/16 08:16:25;;;;;;;9.32;4.82;;;;;;;;;;4974995;28;20054;-57
2021/05/16 08:18:52;;;;;;;7.10;4.65;;;;;;;;;;4970356;28;20821;-57
2021/05/16 08:21:20;;;;;;;7.80;4.88;;;;;;;;;;4974327;28;20027;-56
2021/05/16 08:23:45;;;;;;;6.53;2.97;;;;;;;;;;4972270;28;20083;-58
2021/05/16 08:26:13;;;;;;;3.85;2.10;;;;;;;;;;4971996;28;20034;-60
2021/05/16 08:28:41;;;;;;;2.15;1.77;;;;;;;;;;4956546;28;20041;-57
2021/05/16 08:31:06;;;;;;;3.30;2.00;;;;;;;;;;4960514;28;20092;-57
2021/05/16 08:33:32;;;;;;;4.13;2.13;;;;;;;;;;4973279;28;21898;-58
2021/05/16 08:35:57;;;;;;;4.63;2.22;;;;;;;;;;4976235;28;20034;-59
2021/05/16 08:38:26;;;;;;;7.38;2.13;;;;;;;;;;4973913;28;20857;-58
2021/05/16 08:40:51;;;;;;;2.63;1.67;;;;;;;;;;4972950;28;20038;-57
2021/05/16 08:43:20;;;;;;;5.70;2.15;;;;;;;;;;4940971;28;20061;-57
2021/05/16 08:45:46;;;;;;;2.25;1.70;;;;;;;;;;4959328;28;20062;-56
2021/05/16 08:48:11;;;;;;;4.65;1.55;;;;;;;;;;4962131;28;20121;-54
2021/05/16 08:50:37;;;;;;;2.67;1.30;;;;;;;;;;4974420;28;20048;-55
2021/05/16 08:53:07;;;;;;;2.05;1.05;;;;;;;;;;4964275;28;20100;-54
2021/05/16 08:55:36;;;;;;;2.70;1.08;;;;;;;;;;4974110;28;20119;-52
2021/05/16 08:58:03;;;;;;;2.22;0.93;;;;;;;;;;4976729;28;20034;-54
2021/05/16 09:00:41;;;;;;;3.28;1.10;;;;;;;;;;4959549;28;20141;-54
2021/05/16 09:03:09;;;;;;;2.58;1.33;;;;;;;;;;4972136;28;20080;-52
2021/05/16 09:05:37;;;;;;;5.38;1.15;;;;;;;;;;4975162;28;20124;-54
2021/05/16 09:08:07;;;;;;;2.45;1.17;;;;;;;;;;4976372;28;20523;-54
2021/05/16 09:10:33;;;;;;;3.95;1.15;;;;;;;;;;4972512;28;20167;-54
2021/05/16 09:13:13;;;;;;;5.97;1.27;;;;;;;;;;4975584;28;20033;-54
2021/05/16 09:15:38;;;;;;;3.17;1.30;;;;;;;;;;4957319;28;21219;-55
2021/05/16 09:18:04;;;;;;;2.33;1.20;;;;;;;;;;4957343;28;20045;-55
2021/05/16 09:20:29;;;;;;;1.70;1.00;;;;;;;;;;4971773;28;20038;-55
2021/05/16 09:22:55;;;;;;;3.22;0.85;;;;;;;;;;4972290;28;20034;-55
2021/05/16 09:25:24;;;;;;;1.65;0.90;;;;;;;;;;4964892;28;20046;-55
2021/05/16 09:27:55;;;;;;;2.28;0.90;;;;;;;;;;4974695;28;20381;-58
2021/05/16 09:30:20;;;;;;;1.63;0.93;;;;;;;;;;4976472;28;20069;-57
2021/05/16 09:32:55;;;;;;;0.98;0.50;;;;;;;;;;4976852;28;20275;-57
2021/05/16 09:35:32;;;;;;;0.73;0.50;;;;;;;;;;4979411;28;20313;-59
2021/05/16 09:37:59;;;;;;;2.95;0.80;;;;;;;;;;4976460;28;20026;-57
2021/05/16 09:40:29;;;;;;;1.30;0.80;;;;;;;;;;4974005;28;20075;-58
2021/05/16 09:43:08;;;;;;;1.48;1.00;;;;;;;;;;4981801;28;20034;-58
2021/05/16 09:45:41;;;;;;;3.20;1.20;;;;;;;;;;4975059;28;20041;-59
2021/05/16 09:48:28;;;;;;;3.13;1.67;;;;;;;;;;4977661;28;20062;-59
2021/05/16 09:51:03;;;;;;;6.28;2.08;;;;;;;;;;4974439;28;20688;-58
2021/05/16 09:53:29;;;;;;;3.85;2.13;;;;;;;;;;4984649;28;20042;-60
2021/05/16 09:56:12;;;;;;;5.25;2.30;;;;;;;;;;4974809;28;20038;-58
2021/05/16 09:58:38;;;;;;;5.05;2.58;;;;;;;;;;4959878;28;20069;-58
2021/05/16 10:01:06;;;;;;;5.60;2.70;;;;;;;;;;4965379;28;20038;-58
2021/05/16 10:03:34;;;;;;;5.93;2.80;;;;;;;;;;4978413;28;20034;-59
2021/05/16 10:06:01;;;;;;;6.80;2.80;;;;;;;;;;4975764;28;20034;-58
2021/05/16 10:08:26;;;;;;;4.80;3.00;;;;;;;;;;4976227;28;20037;-58
2021/05/16 10:10:52;;;;;;;4.65;2.58;;;;;;;;;;4973870;28;20034;-58
2021/05/16 10:13:20;;;;;;;2.08;1.67;;;;;;;;;;4944884;28;20709;-58
2021/05/16 10:15:51;;;;;;;4.13;2.00;;;;;;;;;;4958335;28;20045;-58
2021/05/16 10:18:17;;;;;;;4.43;2.50;;;;;;;;;;4962017;28;21902;-59
2021/05/16 10:20:43;;;;;;;3.40;2.13;;;;;;;;;;4974304;28;20040;-58
2021/05/16 10:23:10;;;;;;;5.30;2.38;;;;;;;;;;4975509;28;20069;-59
2021/05/16 10:25:43;;;;;;;3.42;1.98;;;;;;;;;;4974330;28;20249;-59
2021/05/16 10:28:11;;;;;;;4.38;2.03;;;;;;;;;;4983528;28;20034;-57
2021/05/16 10:30:41;;;;;;;2.83;1.90;;;;;;;;;;4975278;28;20030;-58
2021/05/16 10:33:06;;;;;;;4.82;2.10;;;;;;;;;;4974798;28;20057;-60
2021/05/16 10:35:48;;;;;;;3.20;1.63;;;;;;;;;;4943580;28;20034;-59
2021/05/16 10:38:33;;;;;;;2.20;1.50;;;;;;;;;;4974040;28;20950;-58
2021/05/16 10:41:13;;;;;;;4.43;1.90;;;;;;;;;;4971131;28;20061;-60
2021/05/16 10:43:39;;;;;;;1.60;1.30;;;;;;;;;;4977515;28;20084;-59
2021/05/16 10:46:25;;;;;;;2.25;1.65;;;;;;;;;;4972724;28;20034;-60
2021/05/16 10:48:51;;;;;;;3.08;2.15;;;;;;;;;;4978877;28;20085;-58
2021/05/16 10:51:26;;;;;;;4.32;1.85;;;;;;;;;;4957755;28;20162;-60
2021/05/16 10:53:52;;;;;;;2.40;1.77;;;;;;;;;;4975849;28;20035;-59
2021/05/16 10:56:21;;;;;;;5.03;2.05;;;;;;;;;;4973028;28;20044;-58
2021/05/16 10:58:48;;;;;;;2.55;1.40;;;;;;;;;;4978023;28;20113;-59
2021/05/16 11:01:18;;;;;;;2.17;1.63;;;;;;;;;;4977695;28;20027;-59
2021/05/16 11:03:47;;;;;;;1.80;1.20;;;;;;;;;;4976388;28;22086;-60
2021/05/16 11:06:14;;;;;;;1.42;1.33;;;;;;;;;;4973209;28;20909;-59
2021/05/16 11:08:39;;;;;;;1.40;1.25;;;;;;;;;;4975334;28;20034;-59
2021/05/16 11:11:24;;;;;;;5.55;1.90;;;;;;;;;;4975789;28;20038;-59
2021/05/16 11:13:50;;;;;;;4.88;1.75;;;;;;;;;;4975522;28;20877;-59
2021/05/16 11:16:15;;;;;;;4.32;2.28;;;;;;;;;;4959220;28;20018;-60
2021/05/16 11:18:46;;;;;;;43.35;7.75;;;;;;;;;;4971225;28;20027;-54
2021/05/16 11:21:11;;;;;;;12.25;4.00;;;;;;;;;;4969417;28;20136;-57
2021/05/16 11:23:38;;;;;;;12.70;3.63;;;;;;;;;;4973778;28;20056;-58
2021/05/16 11:26:04;;;;;;;27.40;9.48;;;;;;;;;;4976104;28;20026;-58
2021/05/16 11:28:33;;;;;;;9.38;5.55;;;;;;;;;;4976278;28;20037;-58
2021/05/16 11:31:06;;;;;;;18.10;10.00;;;;;;;;;;4974618;28;20070;-57
2021/05/16 11:33:33;;;;;;;19.33;10.52;;;;;;;;;;4977379;28;20037;-59
2021/05/16 11:36:10;;;;;;;26.55;4.95;;;;;;;;;;4975794;28;20037;-59
2021/05/16 11:38:39;;;;;;;28.65;4.55;;;;;;;;;;4976404;28;20034;-59
2021/05/16 11:41:05;;;;;;;10.85;3.50;;;;;;;;;;4974535;28;20026;-58
2021/05/16 11:43:32;;;;;;;20.13;2.28;;;;;;;;;;4958350;28;20041;-58
2021/05/16 11:45:58;;;;;;;2.58;1.17;;;;;;;;;;4976476;28;20154;-60
2021/05/16 11:48:35;;;;;;;4.15;1.27;;;;;;;;;;4973083;28;20026;-57
2021/05/16 11:51:06;;;;;;;4.38;1.85;;;;;;;;;;4964719;28;20535;-57
2021/05/16 11:53:34;;;;;;;3.25;1.38;;;;;;;;;;4975293;28;20927;-58
2021/05/16 11:56:16;;;;;;;4.07;1.98;;;;;;;;;;4973323;28;20296;-58
2021/05/16 11:58:49;;;;;;;1.90;1.33;;;;;;;;;;4964668;28;20034;-59
2021/05/16 12:01:15;;;;;;;2.40;1.15;;;;;;;;;;4979576;28;20026;-58
2021/05/16 12:03:50;;;;;;;3.22;1.02;;;;;;;;;;4974297;28;20085;-58
2021/05/16 12:06:19;;;;;;;3.83;0.73;;;;;;;;;;4974406;28;20116;-60
2021/05/16 12:08:56;;;;;;;1.20;0.77;;;;;;;;;;4974893;28;20433;-59
2021/05/16 12:11:21;;;;;;;0.75;0.60;;;;;;;;;;4969659;28;20026;-59
2021/05/16 12:13:47;;;;;;;4.85;1.10;;;;;;;;;;4972888;28;20556;-57
2021/05/16 12:16:23;;;;;;;1.90;0.70;;;;;;;;;;4973178;28;20536;-58
2021/05/16 12:18:49;;;;;;;4.38;1.20;;;;;;;;;;4971801;28;20045;-59
2021/05/16 12:21:18;;;;;;;3.20;1.27;;;;;;;;;;4972095;28;20085;-59
2021/05/16 12:24:09;;;;;;;2.28;0.95;;;;;;;;;;4974129;28;20029;-58
2021/05/16 12:26:37;;;;;;;3.45;1.08;;;;;;;;;;4971907;28;20398;-59
2021/05/16 12:29:05;;;;;;;1.02;0.73;;;;;;;;;;4972486;28;20115;-60
2021/05/16 12:31:31;;;;;;;3.25;1.00;;;;;;;;;;4974785;28;20830;-59
2021/05/16 12:34:04;;;;;;;2.10;1.13;;;;;;;;;;4975669;28;21973;-58
2021/05/16 12:36:43;;;;;;;3.28;1.88;;;;;;;;;;4978847;28;20104;-59
2021/05/16 12:39:11;;;;;;;3.70;1.33;;;;;;;;;;4973473;28;20029;-58
2021/05/16 12:41:36;;;;;;;2.28;0.80;;;;;;;;;;4971522;28;20542;-59
2021/05/16 12:44:06;;;;;;;2.97;0.90;;;;;;;;;;4958229;28;20536;-59
2021/05/16 12:46:36;;;;;;;0.85;0.73;;;;;;;;;;4973288;28;20033;-58
2021/05/16 12:49:02;;;;;;;1.60;0.52;;;;;;;;;;4974111;28;20481;-59
2021/05/16 12:51:28;;;;;;;1.58;0.60;;;;;;;;;;4971573;28;20050;-58
2021/05/16 12:53:53;;;;;;;0.57;0.40;;;;;;;;;;4959867;28;20070;-61
2021/05/16 12:56:21;;;;;;;0.75;0.50;;;;;;;;;;4954601;28;20693;-59
2021/05/16 13:01:25;;;;;;;0.45;0.25;;;;;;;;;;4972923;28;20030;-61
2021/05/16 13:04:01;;;;;;;2.83;0.40;;;;;;;;;;4969709;28;20030;-60
2021/05/16 13:06:49;;;;;;;2.08;0.47;;;;;;;;;;4960635;28;20073;-59
2021/05/16 13:09:26;;;;;;;1.08;0.30;;;;;;;;;;4977923;28;20223;-60
2021/05/16 13:11:58;;;;;;;1.02;0.17;;;;;;;;;;4962459;28;20026;-62
2021/05/16 13:14:28;;;;;;;0.20;0.20;;;;;;;;;;4976034;28;20038;-60
2021/05/16 13:17:22;;;;;;;0.70;0.45;;;;;;;;;;4982842;28;20045;-61
2021/05/16 13:19:51;;;;;;;1.00;0.30;;;;;;;;;;4972989;28;20129;-61
2021/05/16 13:22:39;;;;;;;1.23;0.35;;;;;;;;;;4973783;28;20030;-60
2021/05/16 13:25:06;;;;;;;3.08;0.47;;;;;;;;;;4977528;28;20124;-61
2021/05/16 13:27:31;;;;;;;0.45;0.40;;;;;;;;;;4966688;28;20681;-60
2021/05/16 13:29:58;;;;;;;0.88;0.30;;;;;;;;;;4973151;28;20048;-63
2021/05/16 13:32:26;;;;;;;1.98;0.50;;;;;;;;;;4958147;28;20345;-62
2021/05/16 13:34:54;;;;;;;1.40;0.38;;;;;;;;;;4977335;28;20878;-63
2021/05/16 13:37:21;;;;;;;0.43;0.20;;;;;;;;;;4974172;28;20037;-63
2021/05/16 13:39:47;;;;;;;2.20;0.30;;;;;;;;;;4959945;28;20066;-62
2021/05/16 13:42:12;;;;;;;1.10;0.40;;;;;;;;;;4974935;28;20084;-62
2021/05/16 13:44:40;;;;;;;1.80;0.50;;;;;;;;;;4973303;28;20523;-61
2021/05/16 13:47:06;;;;;;;1.55;0.50;;;;;;;;;;4975773;28;20166;-62
2021/05/16 13:49:32;;;;;;;2.13;0.45;;;;;;;;;;4959626;28;20034;-62
2021/05/16 13:52:00;;;;;;;1.45;0.30;;;;;;;;;;4992375;28;20282;-61
2021/05/16 13:54:31;;;;;;;1.65;0.57;;;;;;;;;;4961567;28;20042;-61
2021/05/16 13:56:57;;;;;;;2.50;0.52;;;;;;;;;;4979654;28;20758;-60
2021/05/16 13:59:23;;;;;;;1.25;0.40;;;;;;;;;;4973773;28;20726;-62
2021/05/16 14:01:51;;;;;;;3.10;0.73;;;;;;;;;;4950992;28;20168;-61
2021/05/16 14:04:16;;;;;;;1.65;0.57;;;;;;;;;;4974613;28;20394;-61
2021/05/16 14:06:42;;;;;;;5.40;0.65;;;;;;;;;;4976350;28;20026;-62
2021/05/16 14:09:12;;;;;;;2.88;0.63;;;;;;;;;;4959506;28;20516;-63
2021/05/16 14:11:38;;;;;;;3.10;0.77;;;;;;;;;;4963936;28;20034;-61
2021/05/16 14:14:05;;;;;;;2.05;0.68;;;;;;;;;;4960198;28;20034;-62
2021/05/16 14:16:31;;;;;;;4.80;0.90;;;;;;;;;;4973872;28;20643;-61
2021/05/16 14:18:56;;;;;;;3.13;0.55;;;;;;;;;;4975064;28;20030;-60
2021/05/16 14:21:23;;;;;;;6.72;0.80;;;;;;;;;;4975644;28;21881;-61
2021/05/16 14:23:51;;;;;;;6.13;1.15;;;;;;;;;;4974997;28;20506;-60
2021/05/16 14:26:17;;;;;;;8.35;1.33;;;;;;;;;;4978155;28;20109;-60
2021/05/16 14:28:45;;;;;;;5.18;1.10;;;;;;;;;;4975639;28;20654;-61
2021/05/16 14:31:11;;;;;;;4.32;0.70;;;;;;;;;;4974168;28;20061;-62
2021/05/16 14:33:40;;;;;;;4.00;0.52;;;;;;;;;;4976340;28;20038;-61
2021/05/16 14:36:06;;;;;;;1.58;0.35;;;;;;;;;;4977434;28;20030;-61
2021/05/16 14:38:36;;;;;;;0.60;0.30;;;;;;;;;;4978061;28;20454;-59
2021/05/16 14:41:02;;;;;;;0.98;0.40;;;;;;;;;;4972510;28;20122;-61